createdAt,value
2018-01-13T00:12:44.350Z,86.45
2018-01-13T00:33:17.678Z,85.97
2018-01-13T00:53:50.591Z,85.70
2018-01-13T01:14:26.478Z,86.26
2018-01-13T01:35:01.133Z,85.26
2018-01-13T01:55:37.325Z,84.23
2018-01-13T02:16:13.834Z,82.55
2018-01-13T02:36:47.876Z,83.07
2018-01-13T02:57:21.910Z,83.01
2018-01-13T03:17:57.177Z,82.00
2018-01-13T03:38:29.377Z,82.34
2018-01-13T03:59:03.082Z,81.85
2018-01-13T04:19:36.849Z,81.81
2018-01-13T04:40:11.201Z,82.53
2018-01-13T05:00:42.480Z,82.35
2018-01-13T05:21:17.766Z,82.11
2018-01-13T05:41:54.555Z,81.07
2018-01-13T06:02:29.237Z,80.51
2018-01-13T06:23:06.020Z,80.71
2018-01-13T06:43:40.366Z,80.71
2018-01-13T07:04:16.867Z,79.58
2018-01-13T07:24:53.184Z,80.06
2018-01-13T07:45:27.517Z,80.74
2018-01-13T08:06:11.586Z,79.70
2018-01-13T08:26:46.858Z,80.72
2018-01-13T08:47:22.360Z,80.33
2018-01-13T09:07:58.020Z,80.03
2018-01-13T09:28:32.362Z,81.12
2018-01-13T09:49:07.637Z,81.91
2018-01-13T10:09:43.829Z,80.25
2018-01-13T10:30:22.173Z,79.77
2018-01-13T10:50:56.213Z,79.58
2018-01-13T11:11:33.636Z,79.27
2018-01-13T11:32:09.829Z,78.72
2018-01-13T11:52:43.306Z,77.67
2018-01-13T12:13:17.300Z,77.04
2018-01-13T12:33:49.502Z,77.10
2018-01-13T12:54:22.615Z,77.25
2018-01-13T13:14:55.743Z,77.64
2018-01-13T13:35:30.089Z,78.65
2018-01-13T13:56:05.360Z,79.30
2018-01-13T14:16:40.633Z,79.98
2018-01-13T14:37:19.892Z,80.57
2018-01-13T14:57:53.020Z,78.97
2018-01-13T15:18:28.900Z,78.02
2018-01-13T15:39:01.409Z,77.60
2018-01-13T15:59:39.080Z,77.54
2018-01-13T16:20:13.227Z,76.96
2018-01-13T16:40:52.136Z,76.33
2018-01-13T17:01:32.937Z,77.22
2018-01-13T17:22:11.099Z,77.79
2018-01-13T17:42:48.091Z,77.18
2018-01-13T18:03:26.132Z,78.08
2018-01-13T18:23:59.565Z,77.77
2018-01-13T18:44:36.668Z,77.54
2018-01-13T19:05:14.717Z,77.96
2018-01-13T19:25:50.287Z,77.73
2018-01-13T19:46:25.566Z,77.69
2018-01-13T20:07:00.832Z,76.83
2018-01-13T20:45:36.954Z,77.10
2018-01-13T21:06:12.191Z,77.69
2018-01-13T21:26:44.937Z,78.60
2018-01-13T21:47:19.617Z,79.04
2018-01-13T22:07:52.717Z,80.23
2018-01-13T22:28:29.072Z,79.86
2018-01-13T22:49:04.296Z,80.62
2018-01-13T23:09:41.298Z,80.60
2018-01-13T23:30:16.569Z,80.41
2018-01-13T23:50:49.688Z,80.90
